Time;durP1;ratioP1;P1;durP2;ratioP2;P2;SDS_P1;SDS_P2;PMS_P1;PMS_P2;Temp;Humidity;BMP_temperature;BMP_pressure;BME280_temperature;BME280_humidity;BME280_pressure;Samples;Min_cycle;Max_cycle;Signal;HPM_P1;HPM_P2
2022/06/16 00:02:15;;;;;;;7.93;4.27;;;;;;;;;;5114445;27;20551;-72
2022/06/16 00:04:46;;;;;;;6.10;3.60;;;;;;;;;;5115706;27;20726;-72
2022/06/16 00:07:13;;;;;;;5.00;2.60;;;;;;;;;;5116290;27;20732;-72
2022/06/16 00:09:41;;;;;;;5.90;2.90;;;;;;;;;;5115603;27;20750;-73
2022/06/16 00:12:08;;;;;;;5.47;2.90;;;;;;;;;;5115071;27;20991;-73
2022/06/16 00:14:35;;;;;;;6.73;3.27;;;;;;;;;;5115858;27;20534;-73
2022/06/16 00:17:02;;;;;;;6.27;3.10;;;;;;;;;;5116259;27;20465;-73
2022/06/16 00:19:31;;;;;;;5.00;3.17;;;;;;;;;;5115784;27;20905;-73
2022/06/16 00:21:59;;;;;;;6.33;3.30;;;;;;;;;;5113095;27;20455;-73
2022/06/16 00:24:27;;;;;;;4.87;3.40;;;;;;;;;;5115528;27;20859;-72
2022/06/16 00:26:55;;;;;;;8.10;4.63;;;;;;;;;;5115011;27;20612;-73
2022/06/16 00:29:23;;;;;;;6.40;3.80;;;;;;;;;;5114843;27;20447;-73
2022/06/16 00:31:50;;;;;;;6.40;3.80;;;;;;;;;;5115348;27;20808;-72
2022/06/16 00:34:17;;;;;;;3.93;3.10;;;;;;;;;;5116028;27;20461;-73
2022/06/16 00:36:45;;;;;;;4.83;3.87;;;;;;;;;;5114916;27;20466;-72
2022/06/16 00:39:13;;;;;;;6.63;4.50;;;;;;;;;;5115993;27;20482;-73
2022/06/16 00:41:44;;;;;;;3.87;3.20;;;;;;;;;;5114966;27;20490;-73
2022/06/16 00:44:15;;;;;;;4.30;3.47;;;;;;;;;;5115374;27;20519;-73
2022/06/16 00:46:42;;;;;;;6.63;3.40;;;;;;;;;;5115180;27;20469;-73
2022/06/16 00:49:12;;;;;;;6.93;3.70;;;;;;;;;;5115535;27;20442;-73
2022/06/16 00:51:41;;;;;;;5.90;3.83;;;;;;;;;;5104847;27;20488;-71
2022/06/16 00:54:12;;;;;;;6.10;3.37;;;;;;;;;;5097448;28;20497;-73
2022/06/16 00:56:39;;;;;;;6.03;3.63;;;;;;;;;;5095858;27;20532;-73
2022/06/16 00:59:07;;;;;;;5.97;3.53;;;;;;;;;;5095155;27;20463;-73
2022/06/16 01:01:35;;;;;;;8.43;3.37;;;;;;;;;;5093836;27;20759;-72
2022/06/16 01:06:47;;;;;;;6.40;3.60;;;;;;;;;;5094776;27;20498;-72
2022/06/16 01:09:18;;;;;;;7.50;4.70;;;;;;;;;;5095108;27;20736;-73
2022/06/16 01:14:48;;;;;;;4.53;3.37;;;;;;;;;;5094015;27;20532;-72
2022/06/16 01:17:19;;;;;;;9.60;4.20;;;;;;;;;;5094867;27;20458;-73
2022/06/16 01:19:57;;;;;;;6.70;3.80;;;;;;;;;;5093247;27;20455;-72
2022/06/16 01:22:31;;;;;;;5.10;3.70;;;;;;;;;;5096441;27;20452;-72
2022/06/16 01:25:09;;;;;;;4.70;3.77;;;;;;;;;;5098317;27;20459;-73
2022/06/16 01:27:53;;;;;;;6.60;3.83;;;;;;;;;;5098309;27;20712;-73
2022/06/16 01:30:24;;;;;;;7.10;4.43;;;;;;;;;;5097693;27;20463;-73
2022/06/16 01:32:55;;;;;;;7.93;4.03;;;;;;;;;;5098291;27;20456;-73
2022/06/16 01:35:28;;;;;;;7.53;4.10;;;;;;;;;;5098488;27;20464;-73
2022/06/16 01:38:06;;;;;;;5.33;3.60;;;;;;;;;;5098031;27;20754;-72
2022/06/16 01:40:37;;;;;;;8.37;4.83;;;;;;;;;;5098214;27;20899;-73
2022/06/16 01:43:09;;;;;;;5.47;3.53;;;;;;;;;;5098102;27;20508;-73
2022/06/16 01:45:43;;;;;;;6.60;4.37;;;;;;;;;;5098277;27;20459;-73
2022/06/16 01:48:11;;;;;;;6.73;3.80;;;;;;;;;;5098151;27;20499;-74
2022/06/16 01:50:48;;;;;;;5.47;3.60;;;;;;;;;;5098177;27;20778;-73
2022/06/16 01:53:18;;;;;;;5.73;3.97;;;;;;;;;;5097833;27;20451;-72
2022/06/16 01:55:47;;;;;;;16.50;4.60;;;;;;;;;;5097713;27;20455;-73
2022/06/16 01:58:17;;;;;;;7.73;4.53;;;;;;;;;;5097772;27;20447;-73
2022/06/16 02:00:46;;;;;;;8.63;4.70;;;;;;;;;;5097909;27;20807;-73
2022/06/16 02:03:16;;;;;;;6.77;4.40;;;;;;;;;;5097894;27;20923;-73
2022/06/16 02:05:45;;;;;;;6.90;4.77;;;;;;;;;;5099279;27;20823;-73
2022/06/16 02:08:14;;;;;;;6.87;4.27;;;;;;;;;;5097649;27;20440;-73
2022/06/16 02:10:44;;;;;;;6.40;4.67;;;;;;;;;;5097366;27;20557;-73
2022/06/16 02:13:12;;;;;;;7.90;4.17;;;;;;;;;;5097476;27;20524;-73
2022/06/16 02:15:43;;;;;;;5.03;4.17;;;;;;;;;;5097295;27;20482;-73
2022/06/16 02:18:11;;;;;;;6.80;4.37;;;;;;;;;;5096757;27;20891;-71
2022/06/16 02:20:42;;;;;;;6.20;4.93;;;;;;;;;;5097864;27;20491;-73
2022/06/16 02:23:09;;;;;;;4.30;3.30;;;;;;;;;;5096652;27;20530;-72
2022/06/16 02:25:36;;;;;;;9.07;5.77;;;;;;;;;;5098129;27;20452;-73
2022/06/16 02:28:04;;;;;;;7.27;4.40;;;;;;;;;;5098743;27;20459;-73
2022/06/16 02:30:32;;;;;;;6.60;4.67;;;;;;;;;;5100344;27;20470;-73
2022/06/16 02:33:03;;;;;;;6.23;4.60;;;;;;;;;;5097681;27;20446;-73
2022/06/16 02:35:33;;;;;;;7.10;4.97;;;;;;;;;;5097194;27;20499;-72
2022/06/16 02:38:08;;;;;;;7.10;5.33;;;;;;;;;;5097334;27;20452;-73
2022/06/16 02:40:44;;;;;;;8.60;4.50;;;;;;;;;;5097124;27;20511;-73
2022/06/16 02:43:20;;;;;;;9.03;4.70;;;;;;;;;;5097459;27;20447;-72
2022/06/16 02:45:53;;;;;;;7.33;4.93;;;;;;;;;;5096901;27;20474;-73
2022/06/16 02:48:25;;;;;;;6.13;4.57;;;;;;;;;;5096304;27;20448;-73
2022/06/16 02:50:56;;;;;;;6.93;4.80;;;;;;;;;;5096896;27;20538;-73
2022/06/16 02:53:30;;;;;;;7.93;4.93;;;;;;;;;;5096916;27;20470;-73
2022/06/16 02:56:00;;;;;;;7.07;4.87;;;;;;;;;;5095719;27;20871;-72
2022/06/16 02:58:28;;;;;;;13.63;5.13;;;;;;;;;;5097299;27;20455;-72
2022/06/16 03:00:56;;;;;;;6.53;4.73;;;;;;;;;;5096516;27;20756;-72
2022/06/16 03:03:24;;;;;;;6.80;5.00;;;;;;;;;;5096798;27;20448;-72
2022/06/16 03:05:52;;;;;;;6.13;5.30;;;;;;;;;;5096503;27;20792;-73
2022/06/16 03:08:20;;;;;;;6.70;4.40;;;;;;;;;;5096376;27;20462;-73
2022/06/16 03:10:54;;;;;;;7.97;4.60;;;;;;;;;;5096673;27;20757;-73
2022/06/16 03:13:25;;;;;;;6.97;4.53;;;;;;;;;;5095316;27;20443;-73
2022/06/16 03:15:53;;;;;;;6.43;4.07;;;;;;;;;;5096776;27;20444;-73
2022/06/16 03:18:20;;;;;;;7.80;5.30;;;;;;;;;;5096649;27;20615;-72
2022/06/16 03:20:51;;;;;;;7.17;4.93;;;;;;;;;;5096068;27;20849;-73
2022/06/16 03:23:18;;;;;;;4.60;4.10;;;;;;;;;;5096255;27;20801;-72
2022/06/16 03:25:47;;;;;;;6.27;4.53;;;;;;;;;;5096560;27;20528;-73
2022/06/16 03:28:15;;;;;;;6.20;4.30;;;;;;;;;;5096883;27;20482;-72
2022/06/16 03:30:43;;;;;;;5.67;4.43;;;;;;;;;;5097463;27;20455;-72
2022/06/16 03:33:11;;;;;;;5.77;4.73;;;;;;;;;;5096298;27;20751;-72
2022/06/16 03:35:38;;;;;;;4.40;3.70;;;;;;;;;;5095774;27;20863;-73
2022/06/16 03:38:06;;;;;;;6.43;4.17;;;;;;;;;;5099066;27;20463;-72
2022/06/16 03:40:37;;;;;;;7.70;4.63;;;;;;;;;;5097922;27;20481;-73
2022/06/16 03:43:06;;;;;;;7.07;4.10;;;;;;;;;;5097009;27;20593;-72
2022/06/16 03:45:33;;;;;;;7.67;4.80;;;;;;;;;;5095286;27;20554;-73
2022/06/16 03:48:00;;;;;;;6.13;3.40;;;;;;;;;;5095706;27;20479;-73
2022/06/16 03:50:27;;;;;;;5.30;3.50;;;;;;;;;;5095229;27;20459;-73
2022/06/16 03:52:55;;;;;;;5.60;3.77;;;;;;;;;;5096129;27;20554;-73
2022/06/16 03:55:22;;;;;;;6.23;3.60;;;;;;;;;;5096478;27;20875;-73
2022/06/16 03:57:50;;;;;;;4.07;2.80;;;;;;;;;;5095874;27;20467;-73
2022/06/16 04:00:20;;;;;;;7.50;4.20;;;;;;;;;;5094817;27;20480;-73
2022/06/16 04:02:47;;;;;;;8.17;5.17;;;;;;;;;;5096624;27;20463;-73
2022/06/16 04:05:15;;;;;;;5.80;4.03;;;;;;;;;;5096677;27;20447;-73
2022/06/16 04:07:44;;;;;;;4.70;3.57;;;;;;;;;;5095877;27;20604;-73
2022/06/16 04:10:11;;;;;;;4.10;3.70;;;;;;;;;;5095404;27;20924;-72
2022/06/16 04:12:39;;;;;;;6.57;3.70;;;;;;;;;;5098746;27;20570;-73
2022/06/16 04:15:06;;;;;;;7.77;3.80;;;;;;;;;;5095648;27;20465;-72
2022/06/16 04:17:34;;;;;;;4.83;3.70;;;;;;;;;;5094903;27;20468;-72
2022/06/16 04:20:14;;;;;;;8.03;4.13;;;;;;;;;;5094563;27;20494;-73
2022/06/16 04:22:41;;;;;;;5.53;3.97;;;;;;;;;;5094955;27;20451;-73
2022/06/16 04:25:12;;;;;;;4.40;3.07;;;;;;;;;;5093232;27;20448;-73
2022/06/16 04:27:39;;;;;;;6.37;3.93;;;;;;;;;;5095312;27;20733;-73
2022/06/16 04:30:07;;;;;;;5.70;3.97;;;;;;;;;;5095156;27;20769;-72
2022/06/16 04:32:36;;;;;;;7.17;3.53;;;;;;;;;;5094128;27;20462;-72
2022/06/16 04:35:03;;;;;;;4.87;3.70;;;;;;;;;;5094156;27;20488;-72
2022/06/16 04:37:33;;;;;;;4.73;3.47;;;;;;;;;;5093600;27;20459;-73
2022/06/16 04:40:00;;;;;;;6.97;3.90;;;;;;;;;;5093568;27;20805;-73
2022/06/16 04:42:27;;;;;;;6.70;3.43;;;;;;;;;;5095274;27;20546;-73
2022/06/16 04:44:55;;;;;;;9.00;3.50;;;;;;;;;;5094256;27;20491;-72
2022/06/16 04:47:22;;;;;;;13.60;4.90;;;;;;;;;;5094373;27;20448;-72
2022/06/16 04:49:59;;;;;;;6.10;3.13;;;;;;;;;;5094734;27;20848;-72
2022/06/16 04:52:35;;;;;;;4.67;3.13;;;;;;;;;;5093004;27;20475;-73
2022/06/16 04:55:03;;;;;;;5.23;3.43;;;;;;;;;;5094268;27;20466;-73
2022/06/16 04:57:31;;;;;;;4.57;3.30;;;;;;;;;;5103662;27;20852;-73
2022/06/16 04:59:58;;;;;;;8.40;3.80;;;;;;;;;;5095193;27;20443;-73
2022/06/16 05:02:26;;;;;;;8.37;4.50;;;;;;;;;;5104834;27;20533;-73
2022/06/16 05:04:54;;;;;;;11.83;4.40;;;;;;;;;;5093412;27;20458;-73
2022/06/16 05:07:21;;;;;;;7.07;3.90;;;;;;;;;;5093721;27;20798;-73
2022/06/16 05:09:49;;;;;;;4.50;3.10;;;;;;;;;;5093766;27;20481;-73
2022/06/16 05:12:19;;;;;;;8.20;3.60;;;;;;;;;;5092034;27;20723;-73
2022/06/16 05:14:46;;;;;;;4.63;2.93;;;;;;;;;;5093277;27;20513;-73
2022/06/16 05:17:14;;;;;;;6.13;3.27;;;;;;;;;;5092544;27;20439;-73
2022/06/16 05:19:41;;;;;;;11.20;4.53;;;;;;;;;;5090581;27;20534;-72
2022/06/16 05:22:09;;;;;;;13.03;5.30;;;;;;;;;;5092182;27;20826;-73
2022/06/16 05:24:36;;;;;;;5.10;3.43;;;;;;;;;;5092285;27;20450;-73
2022/06/16 05:27:04;;;;;;;6.73;3.23;;;;;;;;;;5093303;27;20781;-73
2022/06/16 05:29:33;;;;;;;6.77;4.10;;;;;;;;;;5089964;27;20454;-72
2022/06/16 05:32:01;;;;;;;4.40;3.77;;;;;;;;;;5105445;27;20450;-74
2022/06/16 05:34:30;;;;;;;9.23;3.77;;;;;;;;;;5109328;27;20447;-74
2022/06/16 05:36:57;;;;;;;5.23;3.73;;;;;;;;;;5111835;27;20451;-72
2022/06/16 05:39:28;;;;;;;9.60;3.63;;;;;;;;;;5113282;27;20451;-73
2022/06/16 05:41:55;;;;;;;4.07;3.50;;;;;;;;;;5108779;27;20554;-73
2022/06/16 05:44:23;;;;;;;8.20;3.30;;;;;;;;;;5109546;27;20439;-72
2022/06/16 05:46:54;;;;;;;8.07;3.20;;;;;;;;;;5109461;27;20469;-73
2022/06/16 05:49:30;;;;;;;5.80;3.80;;;;;;;;;;5109538;27;21050;-73
2022/06/16 05:52:00;;;;;;;6.90;3.50;;;;;;;;;;5111252;27;20450;-74
2022/06/16 05:54:30;;;;;;;7.33;3.93;;;;;;;;;;5108604;27;20446;-73
2022/06/16 05:57:00;;;;;;;6.67;2.90;;;;;;;;;;5110819;27;20446;-73
2022/06/16 05:59:27;;;;;;;4.87;3.80;;;;;;;;;;5110071;27;20447;-73
2022/06/16 06:01:55;;;;;;;4.70;3.20;;;;;;;;;;5093695;27;20475;-73
2022/06/16 06:04:23;;;;;;;4.07;3.60;;;;;;;;;;5090518;27;20886;-73
2022/06/16 06:06:50;;;;;;;5.27;3.50;;;;;;;;;;5091561;27;20745;-73
2022/06/16 06:17:38;;;;;;;4.80;3.07;;;;;;;;;;5095483;27;20940;-73
2022/06/16 06:20:10;;;;;;;4.30;2.63;;;;;;;;;;5097269;27;20463;-72
2022/06/16 06:22:37;;;;;;;6.20;3.10;;;;;;;;;;5094594;27;20470;-73
2022/06/16 06:25:05;;;;;;;6.50;3.70;;;;;;;;;;5095205;27;20469;-72
2022/06/16 06:27:37;;;;;;;9.47;2.90;;;;;;;;;;5097818;27;20451;-72
2022/06/16 06:30:05;;;;;;;7.73;2.50;;;;;;;;;;5116708;27;20459;-72
2022/06/16 06:32:33;;;;;;;5.90;3.07;;;;;;;;;;5109278;27;20558;-72
2022/06/16 06:35:01;;;;;;;5.83;3.10;;;;;;;;;;5096207;27;20880;-75
2022/06/16 06:37:29;;;;;;;5.50;3.23;;;;;;;;;;5096832;27;20451;-74
2022/06/16 06:39:57;;;;;;;4.73;2.73;;;;;;;;;;5096792;27;20451;-72
2022/06/16 06:42:27;;;;;;;4.23;2.30;;;;;;;;;;5096837;27;20488;-73
2022/06/16 06:44:55;;;;;;;9.63;6.00;;;;;;;;;;5093426;27;20471;-73
2022/06/16 06:47:23;;;;;;;5.17;2.97;;;;;;;;;;5094109;27;20559;-73
2022/06/16 06:49:51;;;;;;;5.17;2.57;;;;;;;;;;5094090;27;20906;-71
2022/06/16 06:52:18;;;;;;;6.53;2.87;;;;;;;;;;5098380;27;20799;-73
2022/06/16 06:54:49;;;;;;;6.43;3.60;;;;;;;;;;5123326;27;20483;-74
2022/06/16 06:57:28;;;;;;;5.10;2.30;;;;;;;;;;5115221;27;20545;-75
2022/06/16 07:02:47;;;;;;;4.17;2.53;;;;;;;;;;5109783;27;20501;-72
2022/06/16 07:05:18;;;;;;;6.03;3.07;;;;;;;;;;5108110;27;20726;-73
2022/06/16 07:07:46;;;;;;;6.83;2.67;;;;;;;;;;5111780;27;20463;-73
2022/06/16 07:10:16;;;;;;;4.60;2.37;;;;;;;;;;5097920;27;20455;-72
2022/06/16 07:12:46;;;;;;;6.00;2.30;;;;;;;;;;5107045;27;20538;-73
2022/06/16 07:15:15;;;;;;;5.37;2.03;;;;;;;;;;5128082;27;20455;-71
2022/06/16 07:17:42;;;;;;;5.43;2.50;;;;;;;;;;5094988;27;20856;-72
2022/06/16 07:20:13;;;;;;;8.73;3.70;;;;;;;;;;5126584;27;20896;-73
2022/06/16 07:22:42;;;;;;;8.33;2.50;;;;;;;;;;5129714;27;20478;-73
2022/06/16 07:25:09;;;;;;;4.20;2.87;;;;;;;;;;5114311;27;20465;-72
2022/06/16 07:27:40;;;;;;;5.27;3.13;;;;;;;;;;5115727;27;20451;-72
2022/06/16 07:30:17;;;;;;;10.90;3.20;;;;;;;;;;5112386;27;20445;-73
2022/06/16 07:32:49;;;;;;;5.43;2.53;;;;;;;;;;5124675;27;20442;-74
2022/06/16 07:35:18;;;;;;;6.93;2.93;;;;;;;;;;5112059;27;20439;-73
2022/06/16 07:37:49;;;;;;;4.40;2.50;;;;;;;;;;5110310;27;21150;-74
2022/06/16 07:40:17;;;;;;;6.13;2.77;;;;;;;;;;5095027;27;20436;-73
2022/06/16 07:42:45;;;;;;;3.13;2.20;;;;;;;;;;5105054;27;20447;-73
2022/06/16 07:45:12;;;;;;;7.60;3.30;;;;;;;;;;5093936;27;20733;-74
2022/06/16 07:47:52;;;;;;;7.53;4.63;;;;;;;;;;5102620;27;20447;-73
2022/06/16 07:53:02;;;;;;;9.13;2.63;;;;;;;;;;5106433;27;20462;-72
2022/06/16 07:55:32;;;;;;;5.00;2.70;;;;;;;;;;5116114;27;20455;-72
2022/06/16 07:58:12;;;;;;;8.33;2.50;;;;;;;;;;5132500;27;20438;-73
2022/06/16 08:00:45;;;;;;;4.97;2.27;;;;;;;;;;5127667;27;20482;-73
2022/06/16 08:03:13;;;;;;;8.13;2.73;;;;;;;;;;5108810;27;20454;-72
2022/06/16 08:05:45;;;;;;;4.40;2.90;;;;;;;;;;5113713;27;20755;-73
2022/06/16 08:08:14;;;;;;;6.30;2.40;;;;;;;;;;5112846;27;20507;-72
2022/06/16 08:10:42;;;;;;;5.00;2.00;;;;;;;;;;5113076;27;20454;-72
2022/06/16 08:13:09;;;;;;;3.47;2.20;;;;;;;;;;5114979;27;20490;-74
2022/06/16 08:15:37;;;;;;;3.63;2.40;;;;;;;;;;5104497;27;20486;-73
2022/06/16 08:18:06;;;;;;;5.47;2.37;;;;;;;;;;5105480;27;20463;-73
2022/06/16 08:20:35;;;;;;;3.83;1.80;;;;;;;;;;5102804;27;20502;-74
2022/06/16 08:23:07;;;;;;;4.70;2.60;;;;;;;;;;5095107;27;20459;-74
2022/06/16 08:25:35;;;;;;;4.63;2.70;;;;;;;;;;5095771;27;20753;-74
2022/06/16 08:28:05;;;;;;;4.57;2.00;;;;;;;;;;5093480;27;20508;-74
2022/06/16 08:30:37;;;;;;;3.37;1.83;;;;;;;;;;5134578;27;20509;-72
2022/06/16 08:33:06;;;;;;;4.00;2.43;;;;;;;;;;5126632;27;20742;-72
2022/06/16 08:35:35;;;;;;;5.77;2.30;;;;;;;;;;5109096;27;20465;-74
2022/06/16 08:38:03;;;;;;;5.33;2.40;;;;;;;;;;5128506;27;20449;-75
2022/06/16 08:40:33;;;;;;;4.63;2.30;;;;;;;;;;5123977;27;20862;-71
2022/06/16 08:43:02;;;;;;;3.67;1.87;;;;;;;;;;5113471;27;20456;-73
2022/06/16 08:45:31;;;;;;;4.03;1.90;;;;;;;;;;5121788;27;20446;-73
2022/06/16 08:48:05;;;;;;;5.47;2.00;;;;;;;;;;5095850;27;20860;-73
2022/06/16 08:50:36;;;;;;;6.63;2.43;;;;;;;;;;5103087;27;20494;-71
2022/06/16 08:53:19;;;;;;;4.97;1.77;;;;;;;;;;5112365;27;21067;-73
2022/06/16 08:55:54;;;;;;;5.10;2.40;;;;;;;;;;5108033;27;20502;-74
2022/06/16 08:58:27;;;;;;;5.13;2.00;;;;;;;;;;5102813;27;20462;-74
2022/06/16 09:00:58;;;;;;;4.87;2.23;;;;;;;;;;5101059;27;20534;-74
2022/06/16 09:03:30;;;;;;;3.40;1.70;;;;;;;;;;5097874;27;20791;-73
2022/06/16 09:06:00;;;;;;;6.93;2.03;;;;;;;;;;5097809;27;20462;-74
2022/06/16 09:08:37;;;;;;;4.77;2.27;;;;;;;;;;5091591;27;20447;-73
2022/06/16 09:11:10;;;;;;;3.50;1.83;;;;;;;;;;5092686;27;20459;-74
2022/06/16 09:13:54;;;;;;;3.20;1.60;;;;;;;;;;5092074;27;20492;-72
2022/06/16 09:16:28;;;;;;;5.43;2.37;;;;;;;;;;5112168;27;20454;-71
2022/06/16 09:19:09;;;;;;;4.53;1.80;;;;;;;;;;5098157;27;20446;-73
2022/06/16 09:24:35;;;;;;;5.00;2.00;;;;;;;;;;5110351;27;20451;-72
2022/06/16 09:27:09;;;;;;;4.90;1.77;;;;;;;;;;5112898;27;20939;-74
2022/06/16 09:29:41;;;;;;;3.87;1.70;;;;;;;;;;5098699;27;20452;-73
2022/06/16 09:32:11;;;;;;;3.77;1.37;;;;;;;;;;5092832;27;20520;-72
2022/06/16 09:34:45;;;;;;;6.27;2.00;;;;;;;;;;5109089;27;20831;-71
2022/06/16 09:37:19;;;;;;;3.20;1.20;;;;;;;;;;5101111;27;20463;-72
2022/06/16 09:39:49;;;;;;;4.03;1.43;;;;;;;;;;5111750;27;20477;-73
2022/06/16 09:42:37;;;;;;;4.00;1.57;;;;;;;;;;5101107;27;20483;-74
2022/06/16 09:45:17;;;;;;;7.37;1.60;;;;;;;;;;5106608;27;20469;-74
2022/06/16 09:48:04;;;;;;;3.80;1.17;;;;;;;;;;5115951;27;20454;-72
2022/06/16 09:50:38;;;;;;;3.77;1.37;;;;;;;;;;5099600;27;20466;-73
2022/06/16 09:53:14;;;;;;;3.67;1.27;;;;;;;;;;5123476;27;20445;-73
2022/06/16 09:58:46;;;;;;;2.87;1.20;;;;;;;;;;5079817;27;20440;-75
2022/06/16 10:01:16;;;;;;;10.27;1.47;;;;;;;;;;5092457;27;20487;-72
2022/06/16 10:04:18;;;;;;;4.53;1.20;;;;;;;;;;5093736;27;20463;-73
2022/06/16 10:06:53;;;;;;;4.50;1.70;;;;;;;;;;5095151;27;20574;-73
2022/06/16 10:09:27;;;;;;;2.97;1.17;;;;;;;;;;5094088;27;20708;-73
2022/06/16 10:12:06;;;;;;;4.40;1.53;;;;;;;;;;5096294;27;20961;-74
2022/06/16 10:14:38;;;;;;;3.80;1.40;;;;;;;;;;5094501;27;20524;-74
2022/06/16 10:17:07;;;;;;;6.03;1.60;;;;;;;;;;5108882;27;20451;-74
2022/06/16 10:19:37;;;;;;;2.83;1.33;;;;;;;;;;5099701;27;20467;-73
2022/06/16 10:22:09;;;;;;;4.53;1.30;;;;;;;;;;5093245;27;20514;-75
2022/06/16 10:24:57;;;;;;;2.20;1.00;;;;;;;;;;5107530;27;20450;-73
2022/06/16 10:27:31;;;;;;;4.73;1.57;;;;;;;;;;5107593;27;20675;-74
2022/06/16 10:30:00;;;;;;;3.70;1.07;;;;;;;;;;5114538;27;20555;-72
2022/06/16 10:32:37;;;;;;;4.40;1.40;;;;;;;;;;5114693;27;20455;-74
2022/06/16 10:35:15;;;;;;;4.30;1.27;;;;;;;;;;5103376;27;20482;-73
2022/06/16 10:37:52;;;;;;;5.40;0.97;;;;;;;;;;5114191;27;20529;-73
2022/06/16 10:40:21;;;;;;;4.77;1.60;;;;;;;;;;5105651;27;20962;-73
2022/06/16 10:42:54;;;;;;;5.50;1.80;;;;;;;;;;5106924;27;20475;-74
2022/06/16 10:45:30;;;;;;;2.63;0.97;;;;;;;;;;5111733;27;20718;-73
2022/06/16 10:48:00;;;;;;;1.97;0.80;;;;;;;;;;5095069;27;20527;-74
2022/06/16 10:50:31;;;;;;;2.43;0.97;;;;;;;;;;5093285;27;20551;-74
2022/06/16 10:53:00;;;;;;;2.17;0.90;;;;;;;;;;5094809;27;21118;-74
2022/06/16 10:55:29;;;;;;;4.70;1.20;;;;;;;;;;5104561;27;20450;-73
2022/06/16 10:58:00;;;;;;;2.23;1.10;;;;;;;;;;5106947;27;20952;-74
2022/06/16 11:00:32;;;;;;;2.30;1.00;;;;;;;;;;5108079;27;20462;-74
2022/06/16 11:03:07;;;;;;;2.63;1.30;;;;;;;;;;5110012;27;20466;-74
2022/06/16 11:05:40;;;;;;;2.60;1.00;;;;;;;;;;5114024;27;20810;-72
2022/06/16 11:08:09;;;;;;;2.63;1.57;;;;;;;;;;5115526;27;20518;-72
2022/06/16 11:10:42;;;;;;;2.77;1.20;;;;;;;;;;5102054;27;20492;-73
2022/06/16 11:13:15;;;;;;;2.50;1.00;;;;;;;;;;5109219;27;20588;-74
2022/06/16 11:18:47;;;;;;;2.00;1.00;;;;;;;;;;5114621;27;20463;-75
2022/06/16 11:21:20;;;;;;;1.97;0.80;;;;;;;;;;5115353;27;20933;-73
2022/06/16 11:23:55;;;;;;;2.57;0.70;;;;;;;;;;5116013;27;20450;-74
2022/06/16 11:26:28;;;;;;;1.87;0.73;;;;;;;;;;5112209;27;20449;-74
2022/06/16 11:28:58;;;;;;;1.80;0.60;;;;;;;;;;5107650;27;20503;-74
2022/06/16 11:31:45;;;;;;;2.10;0.60;;;;;;;;;;5102165;27;20450;-74
2022/06/16 11:34:17;;;;;;;3.90;0.70;;;;;;;;;;5100611;27;20467;-74
2022/06/16 11:36:53;;;;;;;1.60;0.73;;;;;;;;;;5103261;27;20553;-73
2022/06/16 11:39:27;;;;;;;1.70;0.70;;;;;;;;;;5095048;27;20960;-74
2022/06/16 11:41:55;;;;;;;2.73;0.77;;;;;;;;;;5095396;27;20486;-74
2022/06/16 11:44:29;;;;;;;2.00;0.77;;;;;;;;;;5094093;27;20458;-75
2022/06/16 11:47:11;;;;;;;3.90;0.90;;;;;;;;;;5092967;27;20489;-75
2022/06/16 11:49:41;;;;;;;4.07;0.83;;;;;;;;;;5107381;27;20523;-74
2022/06/16 11:52:20;;;;;;;2.73;0.80;;;;;;;;;;5103502;27;20533;-74
2022/06/16 11:55:07;;;;;;;2.57;0.80;;;;;;;;;;5110079;27;20450;-75
2022/06/16 11:57:49;;;;;;;1.93;0.77;;;;;;;;;;5106649;27;20434;-74
2022/06/16 12:00:39;;;;;;;2.23;0.80;;;;;;;;;;5096168;27;20463;-75
2022/06/16 12:03:20;;;;;;;3.20;0.73;;;;;;;;;;5097213;27;20447;-73
2022/06/16 12:06:09;;;;;;;2.43;1.10;;;;;;;;;;5099565;27;20584;-74
2022/06/16 12:08:54;;;;;;;2.07;0.70;;;;;;;;;;5114777;27;20458;-73
2022/06/16 12:11:25;;;;;;;2.93;0.80;;;;;;;;;;5114313;27;20444;-75
2022/06/16 12:14:15;;;;;;;2.43;0.80;;;;;;;;;;5098728;27;20856;-73
2022/06/16 12:16:59;;;;;;;2.50;0.90;;;;;;;;;;5099060;27;20532;-75
2022/06/16 12:22:33;;;;;;;2.30;1.00;;;;;;;;;;5092494;27;20479;-74
2022/06/16 12:25:08;;;;;;;4.90;2.40;;;;;;;;;;5095927;27;20725;-76
2022/06/16 12:27:40;;;;;;;3.97;1.27;;;;;;;;;;5092734;27;20454;-74
2022/06/16 12:30:12;;;;;;;2.73;0.70;;;;;;;;;;5102263;27;20666;-74
2022/06/16 12:32:44;;;;;;;6.23;1.13;;;;;;;;;;5098597;27;20719;-74
2022/06/16 12:35:23;;;;;;;2.17;0.70;;;;;;;;;;5097080;27;20451;-75
2022/06/16 12:37:54;;;;;;;3.20;1.00;;;;;;;;;;5113944;27;20499;-75
2022/06/16 12:40:29;;;;;;;4.13;1.10;;;;;;;;;;5113358;27;20447;-74
2022/06/16 12:43:04;;;;;;;3.50;1.00;;;;;;;;;;5113667;27;20581;-75
2022/06/16 12:45:35;;;;;;;4.60;1.00;;;;;;;;;;5099249;27;20466;-75
2022/06/16 12:48:16;;;;;;;2.43;1.10;;;;;;;;;;5094209;27;20545;-75
2022/06/16 12:51:06;;;;;;;3.83;1.53;;;;;;;;;;5102540;27;20443;-74
2022/06/16 12:53:42;;;;;;;4.53;1.07;;;;;;;;;;5113391;27;20803;-74
2022/06/16 12:56:16;;;;;;;3.03;1.03;;;;;;;;;;5114082;27;20473;-75
2022/06/16 12:58:49;;;;;;;2.37;1.30;;;;;;;;;;5114195;27;20603;-74
2022/06/16 13:01:16;;;;;;;3.37;1.20;;;;;;;;;;5108675;27;20932;-74
2022/06/16 13:03:48;;;;;;;2.17;1.07;;;;;;;;;;5100027;27;20503;-72
2022/06/16 13:06:21;;;;;;;5.03;0.90;;;;;;;;;;5107148;27;20458;-74
2022/06/16 13:08:58;;;;;;;2.53;1.00;;;;;;;;;;5102522;27;20752;-75
2022/06/16 13:11:28;;;;;;;3.73;1.20;;;;;;;;;;5095849;27;20519;-74
2022/06/16 13:13:59;;;;;;;2.73;1.10;;;;;;;;;;5111985;27;20458;-74
2022/06/16 13:16:29;;;;;;;5.80;1.30;;;;;;;;;;5110933;27;20463;-74
2022/06/16 13:18:58;;;;;;;3.40;1.73;;;;;;;;;;5096428;27;20453;-74
2022/06/16 13:21:30;;;;;;;2.33;1.17;;;;;;;;;;5094995;27;20479;-74
2022/06/16 13:24:03;;;;;;;4.00;1.03;;;;;;;;;;5102300;27;20486;-75
2022/06/16 13:26:40;;;;;;;3.90;1.30;;;;;;;;;;5096406;27;20462;-74
2022/06/16 13:29:15;;;;;;;2.67;1.50;;;;;;;;;;5095538;27;20468;-74
2022/06/16 13:31:57;;;;;;;4.27;1.23;;;;;;;;;;5099360;27;20466;-74
2022/06/16 13:34:40;;;;;;;7.70;1.40;;;;;;;;;;5116276;27;20450;-76
2022/06/16 13:37:08;;;;;;;3.10;1.03;;;;;;;;;;5111402;27;20525;-74
2022/06/16 13:39:55;;;;;;;3.60;1.10;;;;;;;;;;5105471;27;20457;-73
2022/06/16 13:42:24;;;;;;;3.43;1.00;;;;;;;;;;5105722;27;20483;-74
2022/06/16 13:45:06;;;;;;;2.73;1.10;;;;;;;;;;5114958;27;20516;-74
2022/06/16 13:47:35;;;;;;;2.97;1.20;;;;;;;;;;5101330;27;20474;-75
2022/06/16 13:50:04;;;;;;;2.37;1.17;;;;;;;;;;5095401;27;20451;-75
2022/06/16 13:52:38;;;;;;;1.97;0.73;;;;;;;;;;5098117;27;20463;-74
2022/06/16 13:55:08;;;;;;;3.90;1.00;;;;;;;;;;5111365;27;20968;-73
2022/06/16 13:57:37;;;;;;;2.97;1.00;;;;;;;;;;5096347;27;20452;-74
2022/06/16 14:00:06;;;;;;;4.57;1.20;;;;;;;;;;5094338;28;20459;-74
2022/06/16 14:02:58;;;;;;;2.13;0.90;;;;;;;;;;5104986;27;20486;-73
2022/06/16 14:05:30;;;;;;;1.80;0.80;;;;;;;;;;5115341;27;20660;-73
2022/06/16 14:07:59;;;;;;;3.90;1.23;;;;;;;;;;5114587;27;20493;-74
2022/06/16 14:10:29;;;;;;;3.03;1.33;;;;;;;;;;5115142;27;20470;-74
2022/06/16 14:13:07;;;;;;;5.37;1.00;;;;;;;;;;5120900;27;20544;-73
2022/06/16 14:15:45;;;;;;;2.50;0.97;;;;;;;;;;5129073;27;20551;-74
2022/06/16 14:18:17;;;;;;;3.43;1.27;;;;;;;;;;5104495;27;20447;-74
2022/06/16 14:20:46;;;;;;;1.80;1.00;;;;;;;;;;5092914;27;20447;-74
2022/06/16 14:23:16;;;;;;;4.70;1.07;;;;;;;;;;5093348;27;20447;-75
2022/06/16 14:25:46;;;;;;;2.80;1.10;;;;;;;;;;5094269;27;20455;-74
2022/06/16 14:28:25;;;;;;;3.13;1.10;;;;;;;;;;5093538;27;21044;-76
2022/06/16 14:30:56;;;;;;;2.90;0.93;;;;;;;;;;5103717;27;20470;-75
2022/06/16 14:33:26;;;;;;;2.30;1.07;;;;;;;;;;5097544;27;20885;-74
2022/06/16 14:35:58;;;;;;;2.93;1.20;;;;;;;;;;5113146;27;20969;-74
2022/06/16 14:38:30;;;;;;;2.67;1.07;;;;;;;;;;5114629;27;20478;-74
2022/06/16 14:41:03;;;;;;;2.90;1.30;;;;;;;;;;5114528;27;20454;-74
2022/06/16 14:43:34;;;;;;;3.30;1.07;;;;;;;;;;5116155;27;20715;-74
2022/06/16 14:46:13;;;;;;;2.20;1.20;;;;;;;;;;5115849;27;20463;-74
2022/06/16 14:48:42;;;;;;;2.97;1.00;;;;;;;;;;5116811;27;20850;-74
2022/06/16 14:51:11;;;;;;;2.40;1.10;;;;;;;;;;5109825;27;20462;-73
2022/06/16 14:56:41;;;;;;;2.73;1.07;;;;;;;;;;5103536;27;20455;-73
2022/06/16 14:59:21;;;;;;;2.90;1.60;;;;;;;;;;5109720;27;20558;-75
2022/06/16 15:01:58;;;;;;;2.10;1.07;;;;;;;;;;5109929;27;20540;-72
2022/06/16 15:04:33;;;;;;;2.57;0.97;;;;;;;;;;5107273;27;20447;-76
2022/06/16 15:07:02;;;;;;;3.03;0.93;;;;;;;;;;5111740;27;20443;-75
2022/06/16 15:09:39;;;;;;;3.67;1.57;;;;;;;;;;5104029;27;20550;-75
2022/06/16 15:12:15;;;;;;;4.97;1.50;;;;;;;;;;5110601;27;20461;-73
2022/06/16 15:14:44;;;;;;;2.13;0.87;;;;;;;;;;5106856;27;20478;-73
2022/06/16 15:20:00;;;;;;;2.73;1.10;;;;;;;;;;5109997;27;20928;-74
2022/06/16 15:22:30;;;;;;;2.47;0.97;;;;;;;;;;5115150;27;20654;-73
2022/06/16 15:24:59;;;;;;;4.20;1.10;;;;;;;;;;5114540;27;20444;-74
2022/06/16 15:27:28;;;;;;;2.17;0.87;;;;;;;;;;5115969;27;20471;-73
2022/06/16 15:29:57;;;;;;;4.57;1.90;;;;;;;;;;5113520;27;20520;-73
2022/06/16 15:38:17;;;;;;;2.87;0.97;;;;;;;;;;5108189;27;20434;-74
2022/06/16 15:40:50;;;;;;;2.23;1.10;;;;;;;;;;5113256;27;20468;-73
2022/06/16 15:43:19;;;;;;;1.97;0.93;;;;;;;;;;5096912;27;20458;-75
2022/06/16 15:45:48;;;;;;;4.70;1.30;;;;;;;;;;5113195;27;20487;-73
2022/06/16 15:48:19;;;;;;;2.73;1.20;;;;;;;;;;5096822;27;20535;-72
2022/06/16 15:50:47;;;;;;;4.13;1.57;;;;;;;;;;5099962;27;20458;-74
2022/06/16 15:53:17;;;;;;;1.80;0.90;;;;;;;;;;5098491;27;20486;-72